sensor_id;sensor_type;location;lat;lon;timestamp;temperature;humidity
4826;DHT22;2427;50.934;6.776;2023-06-04T00:00:17;13.40;1.00
4826;DHT22;2427;50.934;6.776;2023-06-04T00:02:42;13.40;1.00
4826;DHT22;2427;50.934;6.776;2023-06-04T00:05:08;13.30;1.00
4826;DHT22;2427;50.934;6.776;2023-06-04T00:07:34;13.30;1.00
4826;DHT22;2427;50.934;6.776;2023-06-04T00:09:59;13.30;1.00
4826;DHT22;2427;50.934;6.776;2023-06-04T00:12:25;13.20;1.00
4826;DHT22;2427;50.934;6.776;2023-06-04T00:14:51;13.20;1.00
4826;DHT22;2427;50.934;6.776;2023-06-04T00:17:16;13.20;1.00
4826;DHT22;2427;50.934;6.776;2023-06-04T00:19:42;13.20;1.00
4826;DHT22;2427;50.934;6.776;2023-06-04T00:22:08;13.10;1.00
4826;DHT22;2427;50.934;6.776;2023-06-04T00:24:35;13.10;1.00
4826;DHT22;2427;50.934;6.776;2023-06-04T00:27:01;13.00;1.00
4826;DHT22;2427;50.934;6.776;2023-06-04T00:29:26;12.90;1.00
4826;DHT22;2427;50.934;6.776;2023-06-04T00:31:52;13.00;1.00
4826;DHT22;2427;50.934;6.776;2023-06-04T00:34:18;12.90;1.00
4826;DHT22;2427;50.934;6.776;2023-06-04T00:36:43;12.90;1.00
4826;DHT22;2427;50.934;6.776;2023-06-04T00:39:09;12.90;1.00
4826;DHT22;2427;50.934;6.776;2023-06-04T00:41:35;12.90;1.00
4826;DHT22;2427;50.934;6.776;2023-06-04T00:44:01;12.80;1.00
4826;DHT22;2427;50.934;6.776;2023-06-04T00:46:28;12.70;1.00
4826;DHT22;2427;50.934;6.776;2023-06-04T00:48:54;12.60;1.00
4826;DHT22;2427;50.934;6.776;2023-06-04T00:51:21;12.50;1.00
4826;DHT22;2427;50.934;6.776;2023-06-04T00:53:50;12.50;1.00
4826;DHT22;2427;50.934;6.776;2023-06-04T00:56:16;12.50;1.00
4826;DHT22;2427;50.934;6.776;2023-06-04T00:58:42;12.50;1.80
4826;DHT22;2427;50.934;6.776;2023-06-04T01:11:38;12.30;3.50
4826;DHT22;2427;50.934;6.776;2023-06-04T01:14:06;12.30;7.30
4826;DHT22;2427;50.934;6.776;2023-06-04T01:16:49;12.20;8.80
4826;DHT22;2427;50.934;6.776;2023-06-04T01:19:57;12.10;7.40
4826;DHT22;2427;50.934;6.776;2023-06-04T01:27:55;12.00;13.80
4826;DHT22;2427;50.934;6.776;2023-06-04T01:30:25;12.00;17.70
4826;DHT22;2427;50.934;6.776;2023-06-04T01:32:53;11.90;16.10
4826;DHT22;2427;50.934;6.776;2023-06-04T01:35:19;11.80;10.40
4826;DHT22;2427;50.934;6.776;2023-06-04T01:37:45;11.80;12.80
4826;DHT22;2427;50.934;6.776;2023-06-04T01:40:11;11.80;17.20
4826;DHT22;2427;50.934;6.776;2023-06-04T01:42:37;11.80;20.80
4826;DHT22;2427;50.934;6.776;2023-06-04T01:45:04;11.70;24.50
4826;DHT22;2427;50.934;6.776;2023-06-04T01:47:29;11.70;28.50
4826;DHT22;2427;50.934;6.776;2023-06-04T01:49:55;11.70;31.10
4826;DHT22;2427;50.934;6.776;2023-06-04T01:52:21;11.60;33.20
4826;DHT22;2427;50.934;6.776;2023-06-04T01:54:47;11.60;35.80
4826;DHT22;2427;50.934;6.776;2023-06-04T01:57:18;11.50;35.90
4826;DHT22;2427;50.934;6.776;2023-06-04T01:59:45;11.60;31.80
4826;DHT22;2427;50.934;6.776;2023-06-04T02:02:12;11.60;27.10
4826;DHT22;2427;50.934;6.776;2023-06-04T02:04:38;11.60;25.30
4826;DHT22;2427;50.934;6.776;2023-06-04T02:07:10;11.60;24.10
4826;DHT22;2427;50.934;6.776;2023-06-04T02:09:36;11.70;23.40
4826;DHT22;2427;50.934;6.776;2023-06-04T02:12:02;11.70;22.40
4826;DHT22;2427;50.934;6.776;2023-06-04T02:14:29;11.70;23.30
4826;DHT22;2427;50.934;6.776;2023-06-04T02:16:54;11.70;23.70
4826;DHT22;2427;50.934;6.776;2023-06-04T02:19:23;11.70;23.10
4826;DHT22;2427;50.934;6.776;2023-06-04T02:21:51;11.70;22.70
4826;DHT22;2427;50.934;6.776;2023-06-04T02:24:17;11.70;22.70
4826;DHT22;2427;50.934;6.776;2023-06-04T02:26:43;11.70;23.80
4826;DHT22;2427;50.934;6.776;2023-06-04T02:29:08;11.70;23.70
4826;DHT22;2427;50.934;6.776;2023-06-04T02:31:34;11.70;23.30
4826;DHT22;2427;50.934;6.776;2023-06-04T02:33:59;11.80;23.10
4826;DHT22;2427;50.934;6.776;2023-06-04T02:36:25;11.70;22.10
4826;DHT22;2427;50.934;6.776;2023-06-04T02:38:50;11.70;22.20
4826;DHT22;2427;50.934;6.776;2023-06-04T02:41:16;11.80;22.10
4826;DHT22;2427;50.934;6.776;2023-06-04T02:43:42;11.70;20.90
4826;DHT22;2427;50.934;6.776;2023-06-04T02:46:07;11.70;20.30
4826;DHT22;2427;50.934;6.776;2023-06-04T02:48:33;11.80;20.00
4826;DHT22;2427;50.934;6.776;2023-06-04T02:50:58;11.80;20.30
4826;DHT22;2427;50.934;6.776;2023-06-04T02:53:24;11.80;20.20
4826;DHT22;2427;50.934;6.776;2023-06-04T02:55:50;11.80;20.00
4826;DHT22;2427;50.934;6.776;2023-06-04T02:58:18;11.80;19.30
4826;DHT22;2427;50.934;6.776;2023-06-04T03:00:44;11.70;19.90
4826;DHT22;2427;50.934;6.776;2023-06-04T03:03:10;11.70;19.10
4826;DHT22;2427;50.934;6.776;2023-06-04T03:05:36;11.60;19.20
4826;DHT22;2427;50.934;6.776;2023-06-04T03:08:02;11.60;18.70
4826;DHT22;2427;50.934;6.776;2023-06-04T03:10:29;11.60;18.90
4826;DHT22;2427;50.934;6.776;2023-06-04T03:12:55;11.50;18.60
4826;DHT22;2427;50.934;6.776;2023-06-04T03:15:20;11.50;19.80
4826;DHT22;2427;50.934;6.776;2023-06-04T03:17:46;11.40;19.70
4826;DHT22;2427;50.934;6.776;2023-06-04T03:20:11;11.40;21.00
4826;DHT22;2427;50.934;6.776;2023-06-04T03:22:37;11.30;21.10
4826;DHT22;2427;50.934;6.776;2023-06-04T03:25:03;11.30;21.30
4826;DHT22;2427;50.934;6.776;2023-06-04T03:27:31;11.30;22.20
4826;DHT22;2427;50.934;6.776;2023-06-04T03:29:57;11.30;23.30
4826;DHT22;2427;50.934;6.776;2023-06-04T03:32:23;11.30;25.40
4826;DHT22;2427;50.934;6.776;2023-06-04T03:34:48;11.30;26.50
4826;DHT22;2427;50.934;6.776;2023-06-04T03:37:16;11.30;26.60
4826;DHT22;2427;50.934;6.776;2023-06-04T03:39:42;11.30;27.50
4826;DHT22;2427;50.934;6.776;2023-06-04T03:42:07;11.30;27.80
4826;DHT22;2427;50.934;6.776;2023-06-04T03:44:33;11.40;27.00
4826;DHT22;2427;50.934;6.776;2023-06-04T03:46:58;11.40;26.60
4826;DHT22;2427;50.934;6.776;2023-06-04T03:49:24;11.40;25.40
4826;DHT22;2427;50.934;6.776;2023-06-04T03:51:50;11.40;25.80
4826;DHT22;2427;50.934;6.776;2023-06-04T03:54:15;11.40;27.50
4826;DHT22;2427;50.934;6.776;2023-06-04T03:56:47;11.40;29.30
4826;DHT22;2427;50.934;6.776;2023-06-04T03:59:12;11.50;30.00
4826;DHT22;2427;50.934;6.776;2023-06-04T04:01:38;11.50;31.10
4826;DHT22;2427;50.934;6.776;2023-06-04T04:04:04;11.50;30.40
4826;DHT22;2427;50.934;6.776;2023-06-04T04:06:30;11.50;29.50
4826;DHT22;2427;50.934;6.776;2023-06-04T04:08:56;11.60;29.10
4826;DHT22;2427;50.934;6.776;2023-06-04T04:11:21;11.70;26.90
4826;DHT22;2427;50.934;6.776;2023-06-04T04:13:48;11.80;25.90
4826;DHT22;2427;50.934;6.776;2023-06-04T04:16:13;11.90;25.30
4826;DHT22;2427;50.934;6.776;2023-06-04T04:18:42;12.00;25.70
4826;DHT22;2427;50.934;6.776;2023-06-04T04:21:10;12.00;24.90
4826;DHT22;2427;50.934;6.776;2023-06-04T04:23:38;12.10;25.80
4826;DHT22;2427;50.934;6.776;2023-06-04T04:26:04;12.10;25.40
4826;DHT22;2427;50.934;6.776;2023-06-04T04:28:29;12.20;25.20
4826;DHT22;2427;50.934;6.776;2023-06-04T04:30:58;12.30;24.90
4826;DHT22;2427;50.934;6.776;2023-06-04T04:33:27;12.40;24.30
4826;DHT22;2427;50.934;6.776;2023-06-04T04:36:00;12.40;23.80
4826;DHT22;2427;50.934;6.776;2023-06-04T04:38:26;12.50;23.20
4826;DHT22;2427;50.934;6.776;2023-06-04T04:40:54;12.50;23.40
4826;DHT22;2427;50.934;6.776;2023-06-04T04:43:32;12.60;23.60
4826;DHT22;2427;50.934;6.776;2023-06-04T04:45:58;12.70;24.00
4826;DHT22;2427;50.934;6.776;2023-06-04T04:48:24;12.70;23.80
4826;DHT22;2427;50.934;6.776;2023-06-04T04:50:50;12.80;23.70
4826;DHT22;2427;50.934;6.776;2023-06-04T04:53:15;12.80;23.70
4826;DHT22;2427;50.934;6.776;2023-06-04T04:55:41;12.90;23.90
4826;DHT22;2427;50.934;6.776;2023-06-04T04:58:06;13.00;23.70
4826;DHT22;2427;50.934;6.776;2023-06-04T05:00:32;12.90;24.80
4826;DHT22;2427;50.934;6.776;2023-06-04T05:02:58;13.00;25.50
4826;DHT22;2427;50.934;6.776;2023-06-04T05:05:23;13.00;26.20
4826;DHT22;2427;50.934;6.776;2023-06-04T05:07:49;13.10;26.70
4826;DHT22;2427;50.934;6.776;2023-06-04T05:10:14;13.10;26.40
4826;DHT22;2427;50.934;6.776;2023-06-04T05:12:51;13.10;26.40
4826;DHT22;2427;50.934;6.776;2023-06-04T05:15:17;13.20;26.30
4826;DHT22;2427;50.934;6.776;2023-06-04T05:17:43;13.30;27.10
4826;DHT22;2427;50.934;6.776;2023-06-04T05:20:09;13.40;27.60
4826;DHT22;2427;50.934;6.776;2023-06-04T05:22:37;13.50;27.40
4826;DHT22;2427;50.934;6.776;2023-06-04T05:25:03;13.60;28.70
4826;DHT22;2427;50.934;6.776;2023-06-04T05:27:29;13.60;28.20
4826;DHT22;2427;50.934;6.776;2023-06-04T05:29:57;13.70;27.90
4826;DHT22;2427;50.934;6.776;2023-06-04T05:32:22;13.70;28.10
4826;DHT22;2427;50.934;6.776;2023-06-04T05:34:48;13.70;28.50
4826;DHT22;2427;50.934;6.776;2023-06-04T05:37:14;13.80;28.90
4826;DHT22;2427;50.934;6.776;2023-06-04T05:39:42;13.90;29.30
4826;DHT22;2427;50.934;6.776;2023-06-04T05:42:08;14.00;28.70
4826;DHT22;2427;50.934;6.776;2023-06-04T05:44:33;14.10;28.70
4826;DHT22;2427;50.934;6.776;2023-06-04T05:46:59;14.10;28.30
4826;DHT22;2427;50.934;6.776;2023-06-04T05:49:24;14.20;28.70
4826;DHT22;2427;50.934;6.776;2023-06-04T05:51:50;14.30;28.50
4826;DHT22;2427;50.934;6.776;2023-06-04T05:54:16;14.40;28.10
4826;DHT22;2427;50.934;6.776;2023-06-04T05:56:41;14.40;28.00
4826;DHT22;2427;50.934;6.776;2023-06-04T05:59:07;14.40;28.50
4826;DHT22;2427;50.934;6.776;2023-06-04T06:01:32;14.60;28.90
4826;DHT22;2427;50.934;6.776;2023-06-04T06:03:58;14.60;28.50
4826;DHT22;2427;50.934;6.776;2023-06-04T06:06:24;14.70;28.70
4826;DHT22;2427;50.934;6.776;2023-06-04T06:08:49;14.80;29.50
4826;DHT22;2427;50.934;6.776;2023-06-04T06:11:16;14.90;28.00
4826;DHT22;2427;50.934;6.776;2023-06-04T06:13:41;15.00;26.60
4826;DHT22;2427;50.934;6.776;2023-06-04T06:16:07;15.00;26.40
4826;DHT22;2427;50.934;6.776;2023-06-04T06:18:32;15.10;26.50
4826;DHT22;2427;50.934;6.776;2023-06-04T06:20:58;15.20;26.80
4826;DHT22;2427;50.934;6.776;2023-06-04T06:23:24;15.30;26.50
4826;DHT22;2427;50.934;6.776;2023-06-04T06:25:49;15.30;26.30
4826;DHT22;2427;50.934;6.776;2023-06-04T06:28:18;15.40;25.60
4826;DHT22;2427;50.934;6.776;2023-06-04T06:30:44;15.40;24.90
4826;DHT22;2427;50.934;6.776;2023-06-04T06:33:10;15.50;24.90
4826;DHT22;2427;50.934;6.776;2023-06-04T06:35:35;15.50;26.20
4826;DHT22;2427;50.934;6.776;2023-06-04T06:38:01;15.60;25.70
4826;DHT22;2427;50.934;6.776;2023-06-04T06:40:27;15.70;25.70
4826;DHT22;2427;50.934;6.776;2023-06-04T06:42:52;15.70;25.30
4826;DHT22;2427;50.934;6.776;2023-06-04T06:45:19;15.80;25.50
4826;DHT22;2427;50.934;6.776;2023-06-04T06:47:45;15.90;26.10
4826;DHT22;2427;50.934;6.776;2023-06-04T06:50:10;16.00;26.40
4826;DHT22;2427;50.934;6.776;2023-06-04T06:52:36;16.00;25.10
4826;DHT22;2427;50.934;6.776;2023-06-04T06:55:04;16.00;26.00
4826;DHT22;2427;50.934;6.776;2023-06-04T06:57:30;16.10;26.80
4826;DHT22;2427;50.934;6.776;2023-06-04T06:59:56;16.10;27.30
4826;DHT22;2427;50.934;6.776;2023-06-04T07:02:22;16.20;25.50
4826;DHT22;2427;50.934;6.776;2023-06-04T07:04:48;16.20;25.10
4826;DHT22;2427;50.934;6.776;2023-06-04T07:07:13;16.30;23.90
4826;DHT22;2427;50.934;6.776;2023-06-04T07:09:39;16.30;23.90
4826;DHT22;2427;50.934;6.776;2023-06-04T07:12:05;16.40;22.10
4826;DHT22;2427;50.934;6.776;2023-06-04T07:14:34;16.50;21.60
4826;DHT22;2427;50.934;6.776;2023-06-04T07:17:00;16.60;21.30
4826;DHT22;2427;50.934;6.776;2023-06-04T07:19:26;16.60;21.40
4826;DHT22;2427;50.934;6.776;2023-06-04T07:21:54;16.60;20.20
4826;DHT22;2427;50.934;6.776;2023-06-04T07:24:21;16.70;20.70
4826;DHT22;2427;50.934;6.776;2023-06-04T07:26:47;16.80;20.00
4826;DHT22;2427;50.934;6.776;2023-06-04T07:29:13;16.90;19.40
4826;DHT22;2427;50.934;6.776;2023-06-04T07:31:39;17.00;19.50
4826;DHT22;2427;50.934;6.776;2023-06-04T07:34:05;17.00;20.90
4826;DHT22;2427;50.934;6.776;2023-06-04T07:36:30;17.10;20.20
4826;DHT22;2427;50.934;6.776;2023-06-04T07:38:56;17.10;19.70
4826;DHT22;2427;50.934;6.776;2023-06-04T07:41:31;17.20;19.50
4826;DHT22;2427;50.934;6.776;2023-06-04T07:43:56;17.30;20.10
4826;DHT22;2427;50.934;6.776;2023-06-04T07:46:22;17.40;20.20
4826;DHT22;2427;50.934;6.776;2023-06-04T07:48:47;17.50;20.70
4826;DHT22;2427;50.934;6.776;2023-06-04T07:51:13;17.50;20.70
4826;DHT22;2427;50.934;6.776;2023-06-04T07:53:39;17.60;20.70
4826;DHT22;2427;50.934;6.776;2023-06-04T07:56:06;17.70;20.80
4826;DHT22;2427;50.934;6.776;2023-06-04T07:58:31;17.80;20.20
4826;DHT22;2427;50.934;6.776;2023-06-04T08:00:57;17.90;19.70
4826;DHT22;2427;50.934;6.776;2023-06-04T08:03:29;17.90;19.50
4826;DHT22;2427;50.934;6.776;2023-06-04T08:05:55;18.00;18.80
4826;DHT22;2427;50.934;6.776;2023-06-04T08:08:20;18.20;18.60
4826;DHT22;2427;50.934;6.776;2023-06-04T08:10:46;18.20;18.70
4826;DHT22;2427;50.934;6.776;2023-06-04T08:13:11;18.30;18.40
4826;DHT22;2427;50.934;6.776;2023-06-04T08:15:37;18.30;18.60
4826;DHT22;2427;50.934;6.776;2023-06-04T08:18:03;18.40;17.90
4826;DHT22;2427;50.934;6.776;2023-06-04T08:20:28;18.40;16.60
4826;DHT22;2427;50.934;6.776;2023-06-04T08:22:54;18.60;18.30
4826;DHT22;2427;50.934;6.776;2023-06-04T08:25:20;18.80;18.40
4826;DHT22;2427;50.934;6.776;2023-06-04T08:27:46;18.80;18.20
4826;DHT22;2427;50.934;6.776;2023-06-04T08:30:12;19.00;19.10
4826;DHT22;2427;50.934;6.776;2023-06-04T08:32:38;19.10;18.60
4826;DHT22;2427;50.934;6.776;2023-06-04T08:35:06;19.20;18.30
4826;DHT22;2427;50.934;6.776;2023-06-04T08:37:32;19.30;17.70
4826;DHT22;2427;50.934;6.776;2023-06-04T08:39:58;19.50;17.70
4826;DHT22;2427;50.934;6.776;2023-06-04T08:42:30;19.50;17.00
4826;DHT22;2427;50.934;6.776;2023-06-04T08:45:01;19.60;14.90
4826;DHT22;2427;50.934;6.776;2023-06-04T08:47:29;19.70;13.50
4826;DHT22;2427;50.934;6.776;2023-06-04T08:49:59;19.90;13.50
4826;DHT22;2427;50.934;6.776;2023-06-04T08:52:29;20.00;13.60
4826;DHT22;2427;50.934;6.776;2023-06-04T08:54:55;20.10;12.00
4826;DHT22;2427;50.934;6.776;2023-06-04T08:57:22;20.20;10.90
4826;DHT22;2427;50.934;6.776;2023-06-04T09:00:17;20.30;10.80
4826;DHT22;2427;50.934;6.776;2023-06-04T09:02:44;20.50;10.90
4826;DHT22;2427;50.934;6.776;2023-06-04T09:05:19;20.60;11.60
4826;DHT22;2427;50.934;6.776;2023-06-04T09:07:46;20.70;10.90
4826;DHT22;2427;50.934;6.776;2023-06-04T09:10:15;20.90;10.70
4826;DHT22;2427;50.934;6.776;2023-06-04T09:12:43;21.00;10.10
4826;DHT22;2427;50.934;6.776;2023-06-04T09:15:14;21.20;9.70
4826;DHT22;2427;50.934;6.776;2023-06-04T09:17:40;21.20;7.90
4826;DHT22;2427;50.934;6.776;2023-06-04T09:20:06;21.30;7.40
4826;DHT22;2427;50.934;6.776;2023-06-04T09:22:40;21.30;6.00
4826;DHT22;2427;50.934;6.776;2023-06-04T09:25:07;21.30;4.50
4826;DHT22;2427;50.934;6.776;2023-06-04T09:27:44;21.30;3.90
4826;DHT22;2427;50.934;6.776;2023-06-04T09:30:09;21.40;3.60
4826;DHT22;2427;50.934;6.776;2023-06-04T09:32:35;21.60;4.10
4826;DHT22;2427;50.934;6.776;2023-06-04T09:35:12;21.70;3.80
4826;DHT22;2427;50.934;6.776;2023-06-04T09:37:40;21.90;2.40
4826;DHT22;2427;50.934;6.776;2023-06-04T09:40:07;22.10;1.80
4826;DHT22;2427;50.934;6.776;2023-06-04T09:42:48;22.10;1.00
4826;DHT22;2427;50.934;6.776;2023-06-04T09:45:33;22.20;1.00
4826;DHT22;2427;50.934;6.776;2023-06-04T09:48:02;22.30;1.00
4826;DHT22;2427;50.934;6.776;2023-06-04T09:50:33;22.40;1.00
4826;DHT22;2427;50.934;6.776;2023-06-04T09:53:00;22.50;1.00
4826;DHT22;2427;50.934;6.776;2023-06-04T09:55:27;22.60;1.00
4826;DHT22;2427;50.934;6.776;2023-06-04T09:57:53;22.70;1.00
4826;DHT22;2427;50.934;6.776;2023-06-04T10:00:23;22.80;1.00
4826;DHT22;2427;50.934;6.776;2023-06-04T10:03:01;22.80;1.00
4826;DHT22;2427;50.934;6.776;2023-06-04T10:05:31;22.80;1.00
4826;DHT22;2427;50.934;6.776;2023-06-04T10:08:09;22.80;1.00
4826;DHT22;2427;50.934;6.776;2023-06-04T10:10:50;23.00;1.00
4826;DHT22;2427;50.934;6.776;2023-06-04T10:13:49;23.10;1.00
4826;DHT22;2427;50.934;6.776;2023-06-04T10:16:20;23.20;1.00
4826;DHT22;2427;50.934;6.776;2023-06-04T10:18:46;23.30;1.00
4826;DHT22;2427;50.934;6.776;2023-06-04T10:21:20;23.40;1.00
4826;DHT22;2427;50.934;6.776;2023-06-04T10:23:46;23.40;1.00
4826;DHT22;2427;50.934;6.776;2023-06-04T10:26:15;23.50;1.00
4826;DHT22;2427;50.934;6.776;2023-06-04T10:28:41;23.50;1.00
4826;DHT22;2427;50.934;6.776;2023-06-04T10:31:15;23.50;1.00
4826;DHT22;2427;50.934;6.776;2023-06-04T10:33:43;23.50;1.00
4826;DHT22;2427;50.934;6.776;2023-06-04T10:36:27;23.60;1.00
4826;DHT22;2427;50.934;6.776;2023-06-04T10:38:55;23.70;1.00
4826;DHT22;2427;50.934;6.776;2023-06-04T10:41:30;23.90;1.00
4826;DHT22;2427;50.934;6.776;2023-06-04T10:44:03;23.90;1.00
4826;DHT22;2427;50.934;6.776;2023-06-04T10:46:40;24.00;1.00
4826;DHT22;2427;50.934;6.776;2023-06-04T10:49:07;24.10;1.00
4826;DHT22;2427;50.934;6.776;2023-06-04T10:51:34;24.20;1.00
4826;DHT22;2427;50.934;6.776;2023-06-04T10:54:02;24.20;1.00
4826;DHT22;2427;50.934;6.776;2023-06-04T10:56:33;24.30;1.00
4826;DHT22;2427;50.934;6.776;2023-06-04T10:59:00;24.20;1.00
4826;DHT22;2427;50.934;6.776;2023-06-04T11:01:29;24.30;1.00
4826;DHT22;2427;50.934;6.776;2023-06-04T11:03:57;24.40;1.00
4826;DHT22;2427;50.934;6.776;2023-06-04T11:06:23;24.40;1.00
4826;DHT22;2427;50.934;6.776;2023-06-04T11:09:07;24.40;1.00
4826;DHT22;2427;50.934;6.776;2023-06-04T11:11:43;24.40;1.00
4826;DHT22;2427;50.934;6.776;2023-06-04T11:14:12;24.50;1.00
4826;DHT22;2427;50.934;6.776;2023-06-04T11:16:43;24.50;1.00
4826;DHT22;2427;50.934;6.776;2023-06-04T11:19:08;24.60;1.00
4826;DHT22;2427;50.934;6.776;2023-06-04T11:21:34;24.70;1.00
4826;DHT22;2427;50.934;6.776;2023-06-04T11:24:03;24.80;1.00
4826;DHT22;2427;50.934;6.776;2023-06-04T11:26:33;24.90;1.00
4826;DHT22;2427;50.934;6.776;2023-06-04T11:29:00;25.10;1.00
4826;DHT22;2427;50.934;6.776;2023-06-04T11:31:29;25.20;1.00
4826;DHT22;2427;50.934;6.776;2023-06-04T11:34:03;25.20;1.00
4826;DHT22;2427;50.934;6.776;2023-06-04T11:36:29;25.30;1.00
4826;DHT22;2427;50.934;6.776;2023-06-04T11:39:02;25.50;1.00
4826;DHT22;2427;50.934;6.776;2023-06-04T11:41:32;25.50;1.00
4826;DHT22;2427;50.934;6.776;2023-06-04T11:44:04;25.60;1.00
4826;DHT22;2427;50.934;6.776;2023-06-04T11:46:49;25.70;1.00
4826;DHT22;2427;50.934;6.776;2023-06-04T11:49:18;25.70;1.00
4826;DHT22;2427;50.934;6.776;2023-06-04T11:51:48;25.70;1.00
4826;DHT22;2427;50.934;6.776;2023-06-04T11:54:16;25.80;1.00
4826;DHT22;2427;50.934;6.776;2023-06-04T11:56:43;26.00;1.00
4826;DHT22;2427;50.934;6.776;2023-06-04T11:59:13;26.00;1.00
4826;DHT22;2427;50.934;6.776;2023-06-04T12:01:44;26.20;1.00
4826;DHT22;2427;50.934;6.776;2023-06-04T12:04:16;26.40;1.00
4826;DHT22;2427;50.934;6.776;2023-06-04T12:07:20;26.50;1.00
4826;DHT22;2427;50.934;6.776;2023-06-04T12:10:18;26.70;1.00
4826;DHT22;2427;50.934;6.776;2023-06-04T12:12:46;26.90;1.00
4826;DHT22;2427;50.934;6.776;2023-06-04T12:15:25;27.10;1.00
4826;DHT22;2427;50.934;6.776;2023-06-04T12:17:52;27.30;1.00
4826;DHT22;2427;50.934;6.776;2023-06-04T12:20:34;27.30;1.00
4826;DHT22;2427;50.934;6.776;2023-06-04T12:23:00;27.20;1.00
4826;DHT22;2427;50.934;6.776;2023-06-04T12:25:29;27.40;1.00
4826;DHT22;2427;50.934;6.776;2023-06-04T12:27:56;27.40;1.00
4826;DHT22;2427;50.934;6.776;2023-06-04T12:30:22;27.40;1.00
4826;DHT22;2427;50.934;6.776;2023-06-04T12:32:49;27.50;1.00
4826;DHT22;2427;50.934;6.776;2023-06-04T12:35:16;27.60;1.00
4826;DHT22;2427;50.934;6.776;2023-06-04T12:37:41;27.60;1.00
4826;DHT22;2427;50.934;6.776;2023-06-04T12:40:07;27.60;1.00
4826;DHT22;2427;50.934;6.776;2023-06-04T12:42:34;27.80;1.00
4826;DHT22;2427;50.934;6.776;2023-06-04T12:44:59;28.10;1.00
4826;DHT22;2427;50.934;6.776;2023-06-04T12:47:25;28.20;1.00
4826;DHT22;2427;50.934;6.776;2023-06-04T12:49:51;28.20;1.00
4826;DHT22;2427;50.934;6.776;2023-06-04T12:52:17;28.40;1.00
4826;DHT22;2427;50.934;6.776;2023-06-04T12:54:43;28.70;1.00
4826;DHT22;2427;50.934;6.776;2023-06-04T12:57:09;28.90;1.00
4826;DHT22;2427;50.934;6.776;2023-06-04T12:59:35;29.10;1.00
4826;DHT22;2427;50.934;6.776;2023-06-04T13:02:00;29.20;1.00
4826;DHT22;2427;50.934;6.776;2023-06-04T13:04:26;29.20;1.00
4826;DHT22;2427;50.934;6.776;2023-06-04T13:06:52;29.10;1.00
4826;DHT22;2427;50.934;6.776;2023-06-04T13:09:20;29.10;1.00
4826;DHT22;2427;50.934;6.776;2023-06-04T13:11:48;29.20;1.00
4826;DHT22;2427;50.934;6.776;2023-06-04T13:14:13;29.30;1.00
4826;DHT22;2427;50.934;6.776;2023-06-04T13:16:39;29.50;1.00
4826;DHT22;2427;50.934;6.776;2023-06-04T13:19:06;29.50;1.00
4826;DHT22;2427;50.934;6.776;2023-06-04T13:21:32;29.60;1.00
4826;DHT22;2427;50.934;6.776;2023-06-04T13:23:57;29.80;1.00
4826;DHT22;2427;50.934;6.776;2023-06-04T13:26:23;29.90;1.00
4826;DHT22;2427;50.934;6.776;2023-06-04T13:28:48;30.00;1.00
4826;DHT22;2427;50.934;6.776;2023-06-04T13:31:14;29.80;1.00
4826;DHT22;2427;50.934;6.776;2023-06-04T13:33:40;29.90;1.00
4826;DHT22;2427;50.934;6.776;2023-06-04T13:36:07;29.80;1.00
4826;DHT22;2427;50.934;6.776;2023-06-04T13:38:32;29.90;1.00
4826;DHT22;2427;50.934;6.776;2023-06-04T13:40:58;30.30;1.00
4826;DHT22;2427;50.934;6.776;2023-06-04T13:43:24;30.60;1.00
4826;DHT22;2427;50.934;6.776;2023-06-04T13:45:49;30.70;1.00
4826;DHT22;2427;50.934;6.776;2023-06-04T13:48:15;30.80;1.00
4826;DHT22;2427;50.934;6.776;2023-06-04T13:50:41;30.90;1.00
4826;DHT22;2427;50.934;6.776;2023-06-04T13:53:08;31.20;1.00
4826;DHT22;2427;50.934;6.776;2023-06-04T13:55:33;31.20;1.00
4826;DHT22;2427;50.934;6.776;2023-06-04T13:57:59;31.30;1.00
4826;DHT22;2427;50.934;6.776;2023-06-04T14:00:24;31.50;1.00
4826;DHT22;2427;50.934;6.776;2023-06-04T14:02:50;31.40;1.00
4826;DHT22;2427;50.934;6.776;2023-06-04T14:05:16;31.50;1.00
4826;DHT22;2427;50.934;6.776;2023-06-04T14:07:42;31.60;1.00
4826;DHT22;2427;50.934;6.776;2023-06-04T14:10:09;31.70;1.00
4826;DHT22;2427;50.934;6.776;2023-06-04T14:12:36;31.70;1.00
4826;DHT22;2427;50.934;6.776;2023-06-04T14:15:02;32.10;1.00
4826;DHT22;2427;50.934;6.776;2023-06-04T14:17:28;33.00;1.00
4826;DHT22;2427;50.934;6.776;2023-06-04T14:19:53;34.00;1.00
4826;DHT22;2427;50.934;6.776;2023-06-04T14:22:19;34.80;1.00
4826;DHT22;2427;50.934;6.776;2023-06-04T14:24:44;35.80;1.00
4826;DHT22;2427;50.934;6.776;2023-06-04T14:27:10;36.40;1.00
4826;DHT22;2427;50.934;6.776;2023-06-04T14:29:36;37.20;1.00
4826;DHT22;2427;50.934;6.776;2023-06-04T14:32:03;37.60;1.00
4826;DHT22;2427;50.934;6.776;2023-06-04T14:34:29;38.00;1.00
4826;DHT22;2427;50.934;6.776;2023-06-04T14:36:55;38.50;1.00
4826;DHT22;2427;50.934;6.776;2023-06-04T14:39:22;38.50;1.00
4826;DHT22;2427;50.934;6.776;2023-06-04T14:41:48;38.60;1.00
4826;DHT22;2427;50.934;6.776;2023-06-04T14:44:15;38.20;1.00
4826;DHT22;2427;50.934;6.776;2023-06-04T14:46:41;38.30;1.00
4826;DHT22;2427;50.934;6.776;2023-06-04T14:49:07;38.70;1.00
4826;DHT22;2427;50.934;6.776;2023-06-04T14:51:32;38.70;1.00
4826;DHT22;2427;50.934;6.776;2023-06-04T14:53:58;39.00;1.00
4826;DHT22;2427;50.934;6.776;2023-06-04T14:56:23;38.80;1.00
4826;DHT22;2427;50.934;6.776;2023-06-04T14:58:49;38.80;1.00
4826;DHT22;2427;50.934;6.776;2023-06-04T15:01:15;38.10;1.00
4826;DHT22;2427;50.934;6.776;2023-06-04T15:03:41;38.50;1.00
4826;DHT22;2427;50.934;6.776;2023-06-04T15:06:07;38.90;1.00
4826;DHT22;2427;50.934;6.776;2023-06-04T15:08:32;39.50;1.00
4826;DHT22;2427;50.934;6.776;2023-06-04T15:10:58;39.50;1.00
4826;DHT22;2427;50.934;6.776;2023-06-04T15:13:23;39.30;1.00
4826;DHT22;2427;50.934;6.776;2023-06-04T15:15:49;39.30;1.00
4826;DHT22;2427;50.934;6.776;2023-06-04T15:18:14;39.50;1.00
4826;DHT22;2427;50.934;6.776;2023-06-04T15:20:40;39.40;1.00
4826;DHT22;2427;50.934;6.776;2023-06-04T15:23:05;39.30;1.00
4826;DHT22;2427;50.934;6.776;2023-06-04T15:25:31;39.10;1.00
4826;DHT22;2427;50.934;6.776;2023-06-04T15:27:58;39.00;1.00
4826;DHT22;2427;50.934;6.776;2023-06-04T15:30:23;38.10;1.00
4826;DHT22;2427;50.934;6.776;2023-06-04T15:32:49;38.50;1.00
4826;DHT22;2427;50.934;6.776;2023-06-04T15:35:15;38.50;1.00
4826;DHT22;2427;50.934;6.776;2023-06-04T15:37:41;38.50;1.00
4826;DHT22;2427;50.934;6.776;2023-06-04T15:40:07;38.70;1.00
4826;DHT22;2427;50.934;6.776;2023-06-04T15:42:33;38.60;1.00
4826;DHT22;2427;50.934;6.776;2023-06-04T15:44:59;38.30;1.00
4826;DHT22;2427;50.934;6.776;2023-06-04T15:47:24;38.30;1.00
4826;DHT22;2427;50.934;6.776;2023-06-04T15:49:50;38.50;1.00
4826;DHT22;2427;50.934;6.776;2023-06-04T15:52:16;38.40;1.00
4826;DHT22;2427;50.934;6.776;2023-06-04T15:54:41;38.30;1.00
4826;DHT22;2427;50.934;6.776;2023-06-04T15:57:07;38.00;1.00
4826;DHT22;2427;50.934;6.776;2023-06-04T15:59:32;38.00;1.00
4826;DHT22;2427;50.934;6.776;2023-06-04T16:01:59;37.90;1.00
4826;DHT22;2427;50.934;6.776;2023-06-04T16:04:24;37.90;1.00
4826;DHT22;2427;50.934;6.776;2023-06-04T16:06:50;37.70;1.00
4826;DHT22;2427;50.934;6.776;2023-06-04T16:09:15;37.90;1.00
4826;DHT22;2427;50.934;6.776;2023-06-04T16:11:41;37.70;1.00
4826;DHT22;2427;50.934;6.776;2023-06-04T16:14:07;37.10;1.00
4826;DHT22;2427;50.934;6.776;2023-06-04T16:16:32;36.90;1.00
4826;DHT22;2427;50.934;6.776;2023-06-04T16:18:58;36.80;1.00
4826;DHT22;2427;50.934;6.776;2023-06-04T16:21:25;36.40;1.00
4826;DHT22;2427;50.934;6.776;2023-06-04T16:23:51;36.10;1.00
4826;DHT22;2427;50.934;6.776;2023-06-04T16:26:17;36.00;1.00